Time;durP1;ratioP1;P1;durP2;ratioP2;P2;SDS_P1;SDS_P2;PMS_P1;PMS_P2;Temp;Humidity;BMP_temperature;BMP_pressure;BME280_temperature;BME280_humidity;BME280_pressure;Samples;Min_cycle;Max_cycle;Signal;HPM_P1;HPM_P2
2021/05/04 00:00:46;;;;;;;3.97;2.80;;;8.80;58.90;;;;;;4946054;29;20045;-63
2021/05/04 00:03:13;;;;;;;5.70;3.17;;;8.80;59.10;;;;;;4946222;29;20082;-63
2021/05/04 00:05:38;;;;;;;4.60;2.97;;;8.80;58.90;;;;;;4947899;29;20063;-63
2021/05/04 00:08:04;;;;;;;4.40;3.00;;;8.70;58.80;;;;;;4946355;29;20224;-63
2021/05/04 00:10:29;;;;;;;3.03;2.45;;;8.70;58.60;;;;;;4945891;29;20039;-63
2021/05/04 00:12:55;;;;;;;3.97;2.75;;;8.70;58.60;;;;;;4946290;29;20353;-63
2021/05/04 00:15:20;;;;;;;6.25;3.13;;;8.70;58.40;;;;;;4945829;29;20104;-64
2021/05/04 00:17:46;;;;;;;4.25;2.85;;;8.70;58.60;;;;;;4947663;29;20043;-63
2021/05/04 00:20:12;;;;;;;4.03;2.85;;;8.80;58.50;;;;;;4946232;29;20043;-64
2021/05/04 00:22:37;;;;;;;5.40;3.00;;;8.60;58.90;;;;;;4945778;29;20237;-64
2021/05/04 00:25:03;;;;;;;5.07;2.70;;;8.60;59.60;;;;;;4945636;29;20043;-63
2021/05/04 00:27:29;;;;;;;3.13;2.50;;;8.70;59.50;;;;;;4945710;29;20323;-64
2021/05/04 00:29:54;;;;;;;4.57;2.97;;;8.70;59.70;;;;;;4947524;29;20079;-63
2021/05/04 00:32:20;;;;;;;4.53;2.90;;;8.70;59.60;;;;;;4945820;29;20087;-63
2021/05/04 00:34:45;;;;;;;4.35;3.28;;;8.70;60.00;;;;;;4945577;29;20406;-63
2021/05/04 00:37:11;;;;;;;4.20;3.00;;;8.80;60.00;;;;;;4945485;29;20094;-63
2021/05/04 00:39:37;;;;;;;4.65;3.50;;;8.60;59.80;;;;;;4945899;29;20032;-64
2021/05/04 00:42:03;;;;;;;3.78;2.83;;;8.70;59.30;;;;;;4946998;29;20259;-64
2021/05/04 00:44:29;;;;;;;5.18;2.50;;;8.60;59.90;;;;;;4945864;29;20035;-64
2021/05/04 00:46:54;;;;;;;4.85;3.13;;;8.70;59.90;;;;;;4945349;29;20040;-64
2021/05/04 00:49:20;;;;;;;4.47;2.83;;;8.60;59.60;;;;;;4945555;29;20046;-64
2021/05/04 00:51:46;;;;;;;3.60;2.60;;;8.60;59.80;;;;;;4945399;29;20040;-63
2021/05/04 00:54:12;;;;;;;4.97;2.90;;;8.50;59.60;;;;;;4945494;29;20255;-63
2021/05/04 00:56:38;;;;;;;3.83;2.70;;;8.60;59.40;;;;;;4914211;29;20023;-63
2021/05/04 00:59:04;;;;;;;3.40;2.60;;;8.50;59.50;;;;;;4928216;29;20394;-63
2021/05/04 01:01:30;;;;;;;3.40;2.45;;;8.40;59.90;;;;;;4927956;29;20055;-63
2021/05/04 01:03:56;;;;;;;4.55;2.72;;;8.50;60.00;;;;;;4928673;29;20042;-63
2021/05/04 01:06:21;;;;;;;3.67;2.92;;;8.50;60.30;;;;;;4945457;29;20346;-64
2021/05/04 01:08:47;;;;;;;4.47;2.67;;;8.40;60.40;;;;;;4946618;29;20330;-63
2021/05/04 01:11:12;;;;;;;4.15;2.80;;;8.50;59.70;;;;;;4945720;29;20036;-63
2021/05/04 01:13:38;;;;;;;4.43;3.00;;;8.40;59.60;;;;;;4945340;29;20095;-63
2021/05/04 01:16:03;;;;;;;3.70;2.92;;;8.30;60.30;;;;;;4945120;29;20040;-63
2021/05/04 01:18:29;;;;;;;2.92;2.45;;;8.30;60.70;;;;;;4944880;29;20040;-63
2021/05/04 01:20:54;;;;;;;3.35;2.75;;;8.40;60.60;;;;;;4946827;29;20020;-63
2021/05/04 01:23:20;;;;;;;4.60;3.20;;;8.30;60.90;;;;;;4945467;29;20226;-63
2021/05/04 01:25:46;;;;;;;3.75;2.97;;;8.20;61.10;;;;;;4944442;29;20106;-63
2021/05/04 01:28:11;;;;;;;4.20;2.92;;;8.30;61.10;;;;;;4944985;29;20044;-63
2021/05/04 01:30:37;;;;;;;3.80;2.80;;;8.20;61.00;;;;;;4945162;29;20042;-63
2021/05/04 01:33:02;;;;;;;4.63;2.80;;;8.20;61.10;;;;;;4930108;29;20043;-64
2021/05/04 01:35:28;;;;;;;5.05;2.70;;;8.10;60.90;;;;;;4945171;29;20086;-63
2021/05/04 01:37:55;;;;;;;3.38;2.63;;;8.20;60.90;;;;;;4945012;29;20039;-63
2021/05/04 01:40:20;;;;;;;3.20;2.50;;;8.00;61.30;;;;;;4928122;29;20192;-63
2021/05/04 01:42:46;;;;;;;5.20;2.75;;;8.10;60.80;;;;;;4928348;29;20059;-64
2021/05/04 01:45:15;;;;;;;2.85;2.30;;;8.10;60.60;;;;;;4944980;29;20060;-64
2021/05/04 01:47:41;;;;;;;3.17;2.67;;;8.30;60.80;;;;;;4946549;29;20402;-63
2021/05/04 01:50:07;;;;;;;3.25;2.60;;;8.30;60.80;;;;;;4945118;29;20105;-63
2021/05/04 01:52:32;;;;;;;3.95;2.83;;;8.20;61.20;;;;;;4943690;29;20107;-63
2021/05/04 01:54:59;;;;;;;3.67;2.72;;;8.10;61.00;;;;;;4944841;29;20028;-63
2021/05/04 01:57:25;;;;;;;4.78;2.55;;;8.00;61.40;;;;;;4944557;29;20035;-63
2021/05/04 01:59:50;;;;;;;3.45;2.50;;;8.10;61.50;;;;;;4946200;29;20331;-63
2021/05/04 02:02:16;;;;;;;3.55;2.72;;;8.00;61.40;;;;;;4944781;29;20079;-63
2021/05/04 02:04:41;;;;;;;5.53;2.88;;;8.00;61.50;;;;;;4944763;29;20043;-63
2021/05/04 02:07:07;;;;;;;3.05;2.50;;;8.10;61.50;;;;;;4944859;29;20058;-63
2021/05/04 02:09:32;;;;;;;3.60;2.60;;;8.10;61.30;;;;;;4945304;29;20305;-63
2021/05/04 02:11:58;;;;;;;3.95;2.78;;;8.00;61.60;;;;;;4949986;29;20038;-63
2021/05/04 02:14:24;;;;;;;6.90;2.70;;;8.10;61.40;;;;;;4948138;29;20059;-63
2021/05/04 02:16:49;;;;;;;4.78;2.97;;;8.10;61.50;;;;;;4948099;29;20094;-63
2021/05/04 02:19:15;;;;;;;3.60;2.65;;;8.00;61.60;;;;;;4948106;29;20098;-63
2021/05/04 02:21:40;;;;;;;3.38;2.75;;;8.00;61.70;;;;;;4948370;29;20041;-63
2021/05/04 02:24:06;;;;;;;3.33;2.38;;;8.20;61.60;;;;;;4949548;29;20035;-63
2021/05/04 02:26:32;;;;;;;3.92;2.25;;;8.00;61.80;;;;;;4947850;29;20235;-62
2021/05/04 02:28:57;;;;;;;3.22;2.50;;;8.00;61.40;;;;;;4931169;29;20255;-62
2021/05/04 02:31:23;;;;;;;3.47;2.58;;;8.10;61.70;;;;;;4947790;29;20095;-63
2021/05/04 02:33:49;;;;;;;5.75;2.60;;;7.90;61.20;;;;;;4947063;29;20350;-63
2021/05/04 02:36:14;;;;;;;3.88;2.40;;;7.90;61.60;;;;;;4948022;29;20091;-63
2021/05/04 02:38:40;;;;;;;4.03;2.50;;;7.90;61.30;;;;;;4949550;29;20043;-62
2021/05/04 02:41:06;;;;;;;7.10;2.58;;;8.00;61.00;;;;;;4947859;29;20103;-62
2021/05/04 02:43:32;;;;;;;3.92;2.53;;;8.00;61.10;;;;;;4947911;29;20326;-63
2021/05/04 02:45:57;;;;;;;4.30;2.90;;;7.90;61.30;;;;;;4947632;29;20255;-64
2021/05/04 02:48:23;;;;;;;3.40;2.50;;;8.00;61.40;;;;;;4947336;29;20039;-63
2021/05/04 02:50:49;;;;;;;3.72;2.80;;;7.90;61.80;;;;;;4949122;29;20028;-63
2021/05/04 02:53:14;;;;;;;3.50;2.50;;;7.90;62.00;;;;;;4947818;29;20034;-62
2021/05/04 02:55:40;;;;;;;3.45;2.65;;;7.90;62.20;;;;;;4947655;29;20038;-63
2021/05/04 02:58:06;;;;;;;5.53;2.85;;;7.90;62.00;;;;;;4947444;29;20047;-63
2021/05/04 03:00:31;;;;;;;6.72;3.20;;;7.80;62.40;;;;;;4930328;29;20067;-64
2021/05/04 03:02:57;;;;;;;3.30;2.45;;;7.80;62.70;;;;;;4949125;29;20239;-65
2021/05/04 03:05:22;;;;;;;3.10;2.60;;;7.90;62.70;;;;;;4947714;29;20409;-63
2021/05/04 03:07:48;;;;;;;3.63;2.83;;;7.80;62.80;;;;;;4947158;29;20047;-63
2021/05/04 03:10:13;;;;;;;4.40;2.60;;;7.70;62.80;;;;;;4947079;29;20040;-62
2021/05/04 03:12:39;;;;;;;4.72;2.75;;;7.80;62.80;;;;;;4947092;29;20039;-62
2021/05/04 03:15:05;;;;;;;4.18;2.80;;;7.60;63.10;;;;;;4948687;29;20090;-63
2021/05/04 03:17:31;;;;;;;3.50;2.45;;;7.60;63.20;;;;;;4947397;29;20035;-63
2021/05/04 03:19:56;;;;;;;3.55;2.70;;;7.60;63.10;;;;;;4947337;29;20079;-63
2021/05/04 03:22:22;;;;;;;5.28;2.47;;;7.60;63.10;;;;;;4947188;29;20036;-63
2021/05/04 03:24:47;;;;;;;5.03;2.85;;;7.60;63.10;;;;;;4946886;29;20342;-63
2021/05/04 03:27:13;;;;;;;4.88;2.67;;;7.60;63.20;;;;;;4946627;29;20035;-63
2021/05/04 03:29:38;;;;;;;3.92;2.35;;;7.60;62.70;;;;;;4931419;29;20055;-63
2021/05/04 03:32:04;;;;;;;3.28;2.42;;;7.80;62.10;;;;;;4947240;29;20047;-63
2021/05/04 03:34:30;;;;;;;3.55;2.42;;;7.70;62.20;;;;;;4946859;29;20040;-63
2021/05/04 03:36:55;;;;;;;3.58;2.70;;;7.80;62.10;;;;;;4946659;29;20035;-63
2021/05/04 03:39:21;;;;;;;3.05;2.47;;;7.80;62.10;;;;;;4946549;29;20051;-63
2021/05/04 03:41:46;;;;;;;3.53;2.58;;;7.70;62.70;;;;;;4948228;29;20036;-63
2021/05/04 03:44:12;;;;;;;8.25;2.88;;;7.60;63.10;;;;;;4946894;29;20044;-63
2021/05/04 03:46:37;;;;;;;4.50;2.45;;;7.70;62.90;;;;;;4947006;29;20043;-63
2021/05/04 03:49:03;;;;;;;3.50;2.20;;;7.60;63.00;;;;;;4929209;29;20342;-64
2021/05/04 03:51:29;;;;;;;2.88;2.28;;;7.70;63.10;;;;;;4946351;29;20031;-64
2021/05/04 03:53:54;;;;;;;3.55;2.40;;;7.60;63.20;;;;;;4947977;29;20087;-63
2021/05/04 03:56:20;;;;;;;3.17;2.58;;;7.70;63.00;;;;;;4929608;29;20044;-64
2021/05/04 03:58:45;;;;;;;6.10;2.88;;;7.70;63.00;;;;;;4946047;29;20361;-64
2021/05/04 04:01:11;;;;;;;8.35;2.60;;;7.60;62.90;;;;;;4946208;29;20033;-64
2021/05/04 04:03:36;;;;;;;5.75;2.63;;;7.70;62.70;;;;;;4946119;29;20059;-64
2021/05/04 04:06:02;;;;;;;4.70;2.40;;;7.70;62.50;;;;;;4948012;29;20311;-64
2021/05/04 04:08:27;;;;;;;4.65;2.47;;;7.70;62.60;;;;;;4946218;29;20071;-63
2021/05/04 04:10:53;;;;;;;6.72;2.40;;;7.60;62.80;;;;;;4945834;29;20036;-63
2021/05/04 04:13:19;;;;;;;4.45;2.47;;;7.60;62.90;;;;;;4945585;29;20036;-63
2021/05/04 04:15:45;;;;;;;4.47;2.40;;;7.60;62.90;;;;;;4945226;29;20040;-63
2021/05/04 04:18:11;;;;;;;6.78;2.60;;;7.70;63.00;;;;;;4930858;29;20032;-63
2021/05/04 04:20:36;;;;;;;4.13;2.50;;;7.60;62.60;;;;;;4946268;29;20354;-64
2021/05/04 04:23:02;;;;;;;5.10;2.42;;;7.60;63.40;;;;;;4946128;29;20040;-63
2021/05/04 04:25:27;;;;;;;4.95;2.33;;;7.60;63.10;;;;;;4945899;29;20048;-63
2021/05/04 04:27:53;;;;;;;4.28;2.60;;;7.70;62.70;;;;;;4945508;29;20055;-64
2021/05/04 04:30:19;;;;;;;4.65;2.45;;;7.80;62.50;;;;;;4945586;29;20047;-63
2021/05/04 04:32:45;;;;;;;4.38;2.63;;;7.80;62.60;;;;;;4914221;29;20158;-63
2021/05/04 04:35:11;;;;;;;3.45;2.42;;;7.80;62.80;;;;;;4945747;29;20040;-64
2021/05/04 04:37:36;;;;;;;4.05;2.47;;;7.90;62.80;;;;;;4945722;29;20047;-63
2021/05/04 04:40:04;;;;;;;3.38;2.42;;;7.90;62.60;;;;;;4945627;29;20255;-63
2021/05/04 04:42:29;;;;;;;5.03;2.65;;;7.90;62.70;;;;;;4945407;29;20082;-63
2021/05/04 04:44:55;;;;;;;5.38;2.65;;;7.90;62.30;;;;;;4947305;29;20040;-63
2021/05/04 04:47:20;;;;;;;4.60;2.50;;;8.00;62.40;;;;;;4945777;29;20050;-64
2021/05/04 04:49:46;;;;;;;4.00;2.35;;;8.00;62.20;;;;;;4928961;29;20049;-63
2021/05/04 04:52:11;;;;;;;5.90;2.60;;;8.00;62.00;;;;;;4945502;29;20031;-64
2021/05/04 04:54:37;;;;;;;3.03;2.20;;;8.00;61.80;;;;;;4945212;29;20032;-63
2021/05/04 04:57:03;;;;;;;4.53;2.35;;;8.10;61.90;;;;;;4946743;29;20377;-63
2021/05/04 04:59:28;;;;;;;4.38;2.50;;;8.20;61.60;;;;;;4945117;29;20462;-63
2021/05/04 05:01:54;;;;;;;5.30;2.70;;;8.20;61.90;;;;;;4927123;29;20042;-63
2021/05/04 05:04:20;;;;;;;5.20;2.65;;;8.20;61.90;;;;;;4945264;29;20039;-63
2021/05/04 05:06:45;;;;;;;6.93;2.60;;;8.30;61.70;;;;;;4944919;29;20103;-63
2021/05/04 05:09:11;;;;;;;4.57;2.60;;;8.30;61.60;;;;;;4946886;29;20034;-63
2021/05/04 05:11:36;;;;;;;3.55;2.40;;;8.30;61.60;;;;;;4945438;29;20083;-63
2021/05/04 05:14:04;;;;;;;6.65;2.55;;;8.30;61.40;;;;;;4944771;29;20059;-63
2021/05/04 05:16:30;;;;;;;5.28;2.47;;;8.40;61.40;;;;;;4944975;29;20047;-63
2021/05/04 05:18:56;;;;;;;8.95;3.13;;;8.40;61.20;;;;;;4944887;29;20091;-63
2021/05/04 05:21:21;;;;;;;5.28;2.55;;;8.50;61.00;;;;;;4927938;29;20099;-64
2021/05/04 05:23:47;;;;;;;4.30;2.55;;;8.60;61.00;;;;;;4946772;29;20314;-63
2021/05/04 05:26:13;;;;;;;7.93;2.47;;;8.60;61.00;;;;;;4928401;29;20046;-63
2021/05/04 05:28:39;;;;;;;5.13;2.40;;;8.70;60.90;;;;;;4927862;29;20103;-63
2021/05/04 05:31:04;;;;;;;4.68;2.60;;;8.80;61.00;;;;;;4944965;29;20259;-63
2021/05/04 05:33:30;;;;;;;4.22;2.15;;;8.80;60.80;;;;;;4944815;29;20040;-63
2021/05/04 05:35:55;;;;;;;4.80;2.30;;;8.90;60.30;;;;;;4946543;29;20031;-63
2021/05/04 05:38:21;;;;;;;10.07;2.15;;;8.90;60.30;;;;;;4944982;29;20211;-64
2021/05/04 05:40:46;;;;;;;2.75;2.00;;;9.10;60.30;;;;;;4944797;29;20094;-63
2021/05/04 05:43:12;;;;;;;10.60;2.35;;;9.10;60.10;;;;;;4945186;29;20051;-63
2021/05/04 05:45:38;;;;;;;9.00;2.10;;;9.20;59.90;;;;;;4947148;29;20055;-63
2021/05/04 05:48:04;;;;;;;6.03;3.28;;;9.30;59.30;;;;;;4950633;29;20032;-64
2021/05/04 05:50:29;;;;;;;3.88;2.00;;;9.40;59.00;;;;;;4948569;29;20196;-64
2021/05/04 05:52:55;;;;;;;4.00;2.10;;;9.40;59.20;;;;;;4948617;29;20398;-64
2021/05/04 05:55:20;;;;;;;5.00;2.17;;;9.50;58.60;;;;;;4948323;29;20035;-64
2021/05/04 05:57:46;;;;;;;2.75;1.88;;;9.60;57.80;;;;;;4948563;29;20054;-64
2021/05/04 06:00:14;;;;;;;2.75;1.80;;;9.70;57.80;;;;;;4948352;29;20150;-65
2021/05/04 06:02:40;;;;;;;7.03;2.60;;;9.80;56.00;;;;;;4949833;29;20031;-64
2021/05/04 06:05:06;;;;;;;4.07;1.90;;;9.90;56.30;;;;;;4948039;29;20039;-63
2021/05/04 06:07:31;;;;;;;2.70;1.90;;;9.90;56.60;;;;;;4948607;29;20223;-65
2021/05/04 06:09:57;;;;;;;3.40;2.00;;;10.00;55.40;;;;;;4948078;29;20027;-65
2021/05/04 06:12:22;;;;;;;2.40;1.67;;;10.20;55.30;;;;;;4947760;29;20036;-65
2021/05/04 06:14:48;;;;;;;4.18;1.52;;;10.30;55.10;;;;;;4949948;29;20087;-64
2021/05/04 06:17:13;;;;;;;4.93;2.10;;;10.40;55.30;;;;;;4948392;29;20098;-63
2021/05/04 06:19:39;;;;;;;3.38;2.17;;;10.50;54.40;;;;;;4947975;29;20094;-63
2021/05/04 06:22:05;;;;;;;2.30;1.67;;;10.60;54.40;;;;;;4931003;29;20027;-64
2021/05/04 06:24:30;;;;;;;6.22;1.70;;;10.60;53.80;;;;;;4930704;29;20131;-63
2021/05/04 06:26:56;;;;;;;3.88;1.90;;;10.80;52.00;;;;;;4949071;29;20258;-63
2021/05/04 06:29:21;;;;;;;4.40;2.00;;;10.80;52.60;;;;;;4947364;29;20102;-64
2021/05/04 06:31:53;;;;;;;3.58;1.77;;;10.90;52.90;;;;;;4948062;29;20036;-64
2021/05/04 06:34:18;;;;;;;3.25;2.10;;;11.00;51.80;;;;;;4947852;29;20090;-64
2021/05/04 06:36:44;;;;;;;5.65;2.00;;;11.10;51.60;;;;;;4947815;29;20036;-63
2021/05/04 06:39:09;;;;;;;4.22;2.05;;;11.20;51.60;;;;;;4949431;29;20042;-64
2021/05/04 06:41:35;;;;;;;2.38;1.88;;;11.30;51.30;;;;;;4948049;29;20236;-64
2021/05/04 06:44:02;;;;;;;4.55;1.92;;;11.40;50.60;;;;;;4947216;29;20443;-63
2021/05/04 06:46:29;;;;;;;3.40;1.92;;;11.40;50.00;;;;;;4947648;29;20043;-63
2021/05/04 06:48:55;;;;;;;4.78;1.88;;;11.50;50.20;;;;;;4947218;29;20047;-64
2021/05/04 06:51:21;;;;;;;4.32;2.13;;;11.70;49.90;;;;;;4947364;29;20035;-63
2021/05/04 06:53:48;;;;;;;2.40;1.90;;;11.80;50.30;;;;;;4949289;29;20053;-63
2021/05/04 06:56:13;;;;;;;6.85;2.10;;;11.90;49.20;;;;;;4945876;29;20211;-63
2021/05/04 06:58:39;;;;;;;6.47;2.25;;;12.00;49.20;;;;;;4947066;29;20036;-63
2021/05/04 07:01:05;;;;;;;3.60;2.00;;;12.10;49.50;;;;;;4947226;29;20048;-63
2021/05/04 07:03:30;;;;;;;3.05;2.00;;;12.20;48.70;;;;;;4947179;29;20039;-63
2021/05/04 07:05:56;;;;;;;4.28;1.83;;;12.30;48.10;;;;;;4949119;29;20028;-63
2021/05/04 07:08:21;;;;;;;3.22;2.00;;;12.40;48.20;;;;;;4947580;29;20055;-64
2021/05/04 07:10:47;;;;;;;3.30;1.80;;;12.50;48.40;;;;;;4930179;29;20238;-63
2021/05/04 07:13:16;;;;;;;4.68;2.08;;;12.60;46.80;;;;;;4946947;29;20357;-63
2021/05/04 07:15:42;;;;;;;4.63;2.08;;;12.70;47.20;;;;;;4946622;29;20031;-63
2021/05/04 07:18:09;;;;;;;3.88;1.80;;;12.80;47.10;;;;;;4948831;29;20091;-63
2021/05/04 07:20:36;;;;;;;4.00;1.70;;;13.00;46.70;;;;;;4946683;29;20043;-63
2021/05/04 07:23:04;;;;;;;4.97;1.98;;;13.10;47.50;;;;;;4946902;29;20044;-64
2021/05/04 07:25:29;;;;;;;7.05;2.00;;;13.10;46.90;;;;;;4947152;29;20091;-64
2021/05/04 07:27:55;;;;;;;4.47;1.95;;;13.30;47.10;;;;;;4946776;29;20066;-63
2021/05/04 07:30:21;;;;;;;5.45;2.03;;;13.30;46.30;;;;;;4946835;29;20303;-63
2021/05/04 07:32:47;;;;;;;6.72;2.00;;;13.40;45.00;;;;;;4948628;29;20019;-64
2021/05/04 07:35:12;;;;;;;3.72;2.25;;;13.60;44.80;;;;;;4946906;29;20043;-64
2021/05/04 07:37:39;;;;;;;5.50;2.40;;;13.70;44.70;;;;;;4946900;29;20334;-64
2021/05/04 07:40:05;;;;;;;4.05;1.92;;;13.80;43.90;;;;;;4946502;29;20028;-63
2021/05/04 07:42:30;;;;;;;2.20;1.80;;;13.90;43.20;;;;;;4947384;29;20091;-64
2021/05/04 07:44:56;;;;;;;2.53;1.92;;;14.00;42.60;;;;;;4948053;29;20016;-64
2021/05/04 07:47:21;;;;;;;3.75;2.03;;;14.00;43.30;;;;;;4946802;29;20063;-64
2021/05/04 07:49:48;;;;;;;7.65;2.22;;;14.10;43.10;;;;;;4946450;29;20032;-64
2021/05/04 07:52:14;;;;;;;3.55;1.80;;;14.20;42.90;;;;;;4929756;29;20347;-64
2021/05/04 07:54:39;;;;;;;3.08;1.90;;;14.30;42.30;;;;;;4929354;29;20063;-64
2021/05/04 07:57:05;;;;;;;2.65;1.83;;;14.40;41.50;;;;;;4947776;29;20152;-64
2021/05/04 07:59:31;;;;;;;2.97;1.60;;;14.50;42.30;;;;;;4946375;29;20059;-64
2021/05/04 08:01:58;;;;;;;3.20;1.83;;;14.60;41.60;;;;;;4913409;29;20223;-64
2021/05/04 08:04:24;;;;;;;2.83;1.85;;;14.70;42.30;;;;;;4946333;29;20047;-64
2021/05/04 08:06:50;;;;;;;2.50;1.83;;;14.80;41.60;;;;;;4946120;29;20047;-64
2021/05/04 08:09:15;;;;;;;3.30;1.80;;;14.90;41.60;;;;;;4945738;29;20047;-64
2021/05/04 08:11:41;;;;;;;3.10;1.95;;;14.90;40.50;;;;;;4947929;29;20149;-64
2021/05/04 08:14:07;;;;;;;2.97;1.98;;;15.00;40.70;;;;;;4946311;29;20095;-64
2021/05/04 08:16:33;;;;;;;2.97;1.92;;;15.10;40.00;;;;;;4946085;29;20107;-64
2021/05/04 08:18:59;;;;;;;3.40;2.00;;;15.20;40.10;;;;;;4945983;29;20035;-65
2021/05/04 08:21:27;;;;;;;4.70;2.00;;;15.30;41.00;;;;;;4945686;29;20031;-65
2021/05/04 08:23:52;;;;;;;4.78;1.65;;;15.30;40.00;;;;;;4947977;29;20090;-64
2021/05/04 08:26:18;;;;;;;2.42;1.67;;;15.30;40.00;;;;;;4946268;29;20223;-65
2021/05/04 08:28:45;;;;;;;3.40;1.80;;;15.40;40.60;;;;;;4945869;29;20071;-67
2021/05/04 08:31:11;;;;;;;5.40;1.92;;;15.50;41.10;;;;;;4913202;29;20190;-65
2021/05/04 08:33:36;;;;;;;5.53;1.88;;;15.60;39.60;;;;;;4945501;29;20042;-64
2021/05/04 08:36:02;;;;;;;3.00;1.90;;;15.80;39.40;;;;;;4947314;29;20031;-64
2021/05/04 08:38:27;;;;;;;6.10;1.80;;;15.80;39.90;;;;;;4945397;29;20333;-65
2021/05/04 08:40:53;;;;;;;7.38;1.90;;;15.90;40.10;;;;;;4944788;29;20091;-66
2021/05/04 08:43:25;;;;;;;3.67;1.85;;;16.00;39.90;;;;;;4945950;29;20265;-66
2021/05/04 08:45:57;;;;;;;4.13;1.70;;;16.10;38.80;;;;;;4945615;29;20036;-67
2021/05/04 08:48:24;;;;;;;3.15;1.63;;;16.20;38.60;;;;;;4927723;29;20031;-67
2021/05/04 08:50:50;;;;;;;3.17;1.88;;;16.30;39.20;;;;;;4946871;29;20176;-65
2021/05/04 08:53:16;;;;;;;3.60;1.70;;;16.50;39.80;;;;;;4945390;29;20046;-66
2021/05/04 08:55:41;;;;;;;2.92;1.85;;;16.50;40.10;;;;;;4945136;29;20055;-66
2021/05/04 08:58:07;;;;;;;3.42;1.80;;;16.70;39.10;;;;;;4945205;29;20046;-66
2021/05/04 09:00:33;;;;;;;4.35;1.90;;;16.80;38.00;;;;;;4944878;29;20331;-66
2021/05/04 09:03:15;;;;;;;5.63;1.90;;;16.80;36.80;;;;;;4946842;29;20331;-66
2021/05/04 09:05:53;;;;;;;4.20;2.08;;;16.90;37.10;;;;;;4944535;29;20035;-66
2021/05/04 09:17:16;;;;;;;3.55;1.70;;;17.30;36.80;;;;;;4902844;29;20046;-66
2021/05/04 09:20:06;;;;;;;5.82;1.88;;;17.40;36.90;;;;;;4928670;29;20099;-65
2021/05/04 09:22:43;;;;;;;2.15;1.55;;;17.40;36.00;;;;;;4927919;29;20036;-66
2021/05/04 09:25:30;;;;;;;3.42;2.00;;;17.50;34.10;;;;;;4944877;29;20036;-65
2021/05/04 09:28:03;;;;;;;7.07;1.92;;;17.50;35.20;;;;;;4944921;29;20083;-66
2021/05/04 09:30:30;;;;;;;3.40;1.75;;;17.60;35.00;;;;;;4944738;29;20243;-65
2021/05/04 09:32:56;;;;;;;3.25;1.80;;;17.70;35.90;;;;;;4929771;29;20020;-64
2021/05/04 09:35:30;;;;;;;3.35;1.90;;;17.80;35.70;;;;;;4945155;29;20039;-66
2021/05/04 09:38:09;;;;;;;2.30;1.52;;;17.90;35.20;;;;;;4927965;29;20095;-66
2021/05/04 09:40:37;;;;;;;11.77;2.30;;;18.00;33.30;;;;;;4944823;29;20043;-66
2021/05/04 09:43:24;;;;;;;2.75;1.67;;;18.10;34.70;;;;;;4928005;29;20043;-66
2021/05/04 09:45:50;;;;;;;3.78;1.80;;;18.10;33.90;;;;;;4945093;29;20083;-66
2021/05/04 09:48:23;;;;;;;6.20;1.88;;;18.30;34.80;;;;;;4944460;29;20054;-66
2021/05/04 09:51:05;;;;;;;4.13;1.58;;;18.30;33.70;;;;;;4946565;29;20027;-65
2021/05/04 09:53:39;;;;;;;5.18;1.60;;;18.30;34.10;;;;;;4944683;29;20051;-66
2021/05/04 09:56:04;;;;;;;4.78;1.80;;;18.30;34.00;;;;;;4927514;29;20039;-65
2021/05/04 09:58:45;;;;;;;2.85;1.63;;;18.30;32.50;;;;;;4944758;29;20046;-67
2021/05/04 10:01:18;;;;;;;4.57;1.67;;;18.30;33.10;;;;;;4912703;29;20239;-65
2021/05/04 10:03:45;;;;;;;3.00;2.00;;;18.40;33.60;;;;;;4944618;29;20257;-64
2021/05/04 10:06:12;;;;;;;5.00;2.20;;;18.40;33.30;;;;;;4946177;29;20071;-65
2021/05/04 10:08:38;;;;;;;3.10;1.60;;;18.40;33.00;;;;;;4945367;29;20055;-65
2021/05/04 10:11:05;;;;;;;3.63;1.83;;;18.40;31.90;;;;;;4944300;29;20036;-66
2021/05/04 10:13:31;;;;;;;2.42;1.40;;;18.50;33.10;;;;;;4944086;29;20032;-65
2021/05/04 10:15:57;;;;;;;3.35;1.85;;;18.40;30.90;;;;;;4944199;29;20036;-65
2021/05/04 10:18:23;;;;;;;6.75;1.88;;;18.40;31.00;;;;;;4944161;29;20038;-65
2021/05/04 10:20:50;;;;;;;2.72;1.80;;;18.60;30.90;;;;;;4929390;29;20028;-64
2021/05/04 10:23:16;;;;;;;2.88;1.65;;;18.70;31.20;;;;;;4927020;29;20039;-64
2021/05/04 10:25:41;;;;;;;5.28;1.60;;;18.80;30.60;;;;;;4927131;29;20036;-65
2021/05/04 10:28:08;;;;;;;4.18;1.70;;;18.80;30.90;;;;;;4911664;29;20035;-66
2021/05/04 10:30:34;;;;;;;2.63;1.67;;;18.90;30.80;;;;;;4927637;29;20032;-64
2021/05/04 10:33:02;;;;;;;7.10;1.63;;;18.80;29.00;;;;;;4949712;29;20091;-65
2021/05/04 10:35:32;;;;;;;3.45;1.55;;;18.80;29.50;;;;;;4947831;29;20036;-65
2021/05/04 10:38:12;;;;;;;3.40;1.90;;;18.90;29.00;;;;;;4930725;29;20268;-65
2021/05/04 10:40:46;;;;;;;3.92;1.95;;;18.90;29.20;;;;;;4947446;29;20058;-65
2021/05/04 10:43:21;;;;;;;2.03;1.50;;;18.80;28.10;;;;;;4930494;29;20028;-64
2021/05/04 10:45:47;;;;;;;2.72;1.50;;;19.00;29.30;;;;;;4947437;29;20079;-66
2021/05/04 10:48:12;;;;;;;3.65;1.70;;;19.00;30.30;;;;;;4947347;29;20066;-66
2021/05/04 10:50:55;;;;;;;3.65;1.73;;;19.20;30.20;;;;;;4949230;29;20028;-66
2021/05/04 10:53:21;;;;;;;5.28;1.50;;;19.20;29.20;;;;;;4930855;29;20067;-66
2021/05/04 10:55:53;;;;;;;4.50;1.63;;;19.30;29.80;;;;;;4947236;29;20091;-66
2021/05/04 10:58:22;;;;;;;2.65;1.77;;;19.30;29.10;;;;;;4929511;29;20028;-67
2021/05/04 11:01:04;;;;;;;4.03;1.70;;;19.30;29.80;;;;;;4947074;29;20239;-65
2021/05/04 11:03:33;;;;;;;4.90;1.63;;;19.30;29.50;;;;;;4899252;29;20200;-64
2021/05/04 11:06:01;;;;;;;4.22;1.60;;;19.30;30.00;;;;;;4949151;29;20024;-65
2021/05/04 11:08:47;;;;;;;2.95;1.63;;;19.50;29.80;;;;;;4947410;29;20051;-65
2021/05/04 11:11:30;;;;;;;5.35;1.70;;;19.70;28.50;;;;;;4914276;29;20028;-64
2021/05/04 11:14:00;;;;;;;5.50;2.63;;;19.80;29.00;;;;;;4930298;29;20032;-65
2021/05/04 11:16:29;;;;;;;7.72;2.60;;;19.80;30.90;;;;;;4946816;29;20043;-64
2021/05/04 11:19:16;;;;;;;7.90;2.22;;;19.80;30.40;;;;;;4946835;29;20277;-64
2021/05/04 11:21:42;;;;;;;7.13;2.00;;;19.90;31.70;;;;;;4946486;29;20143;-65
2021/05/04 11:24:15;;;;;;;4.10;1.70;;;19.80;30.80;;;;;;4948773;29;20243;-65
2021/05/04 11:27:12;;;;;;;3.08;1.63;;;19.90;29.80;;;;;;4947796;29;20039;-66
2021/05/04 11:29:38;;;;;;;3.72;1.80;;;19.90;29.80;;;;;;4934102;29;20330;-65
2021/05/04 11:32:08;;;;;;;4.03;1.80;;;19.90;30.70;;;;;;4947059;29;20043;-65
2021/05/04 11:34:42;;;;;;;3.03;1.50;;;19.80;30.10;;;;;;4929797;29;20099;-65
2021/05/04 11:37:23;;;;;;;2.45;1.40;;;19.70;29.10;;;;;;4946486;29;20027;-65
2021/05/04 11:39:57;;;;;;;3.38;1.38;;;19.80;30.40;;;;;;4946975;29;20062;-65
2021/05/04 11:42:26;;;;;;;1.83;1.23;;;19.90;30.50;;;;;;4946698;29;20042;-65
2021/05/04 11:44:52;;;;;;;3.20;1.70;;;19.80;30.60;;;;;;4948375;29;20144;-65
2021/05/04 11:47:27;;;;;;;2.80;1.50;;;19.90;30.50;;;;;;4929964;29;20049;-64
2021/05/04 11:50:18;;;;;;;7.13;1.60;;;20.00;30.60;;;;;;4946536;29;20323;-66
2021/05/04 11:53:07;;;;;;;7.15;1.30;;;20.10;29.40;;;;;;4946232;29;20040;-64
2021/05/04 11:55:51;;;;;;;2.00;1.40;;;20.20;30.20;;;;;;4945800;29;20035;-64
2021/05/04 11:58:27;;;;;;;5.32;1.52;;;20.10;29.70;;;;;;4929501;29;20099;-65
2021/05/04 12:01:04;;;;;;;4.72;1.27;;;20.20;30.80;;;;;;4946039;29;20238;-65
2021/05/04 12:03:31;;;;;;;4.22;1.45;;;20.20;30.00;;;;;;4946614;29;20038;-67
2021/05/04 12:05:57;;;;;;;2.13;1.23;;;20.20;31.10;;;;;;4915645;29;20366;-70
2021/05/04 12:08:23;;;;;;;4.10;1.60;;;20.20;30.00;;;;;;4929512;29;20071;-66
2021/05/04 12:10:49;;;;;;;2.40;1.50;;;20.20;30.40;;;;;;4945981;29;20035;-66
2021/05/04 12:13:25;;;;;;;3.97;1.63;;;20.20;29.60;;;;;;4945793;29;20036;-65
2021/05/04 12:15:52;;;;;;;2.25;1.33;;;20.00;31.70;;;;;;4946111;29;20382;-66
2021/05/04 12:18:30;;;;;;;5.85;1.45;;;20.20;31.20;;;;;;4945715;29;20027;-66
2021/05/04 12:21:06;;;;;;;3.08;1.88;;;20.20;29.70;;;;;;4948017;29;20044;-65
2021/05/04 12:23:32;;;;;;;4.32;1.40;;;20.20;29.70;;;;;;4929223;29;20099;-66
2021/05/04 12:26:04;;;;;;;14.85;6.07;;;20.20;29.80;;;;;;4945814;29;20044;-70
2021/05/04 12:28:47;;;;;;;15.30;8.18;;;20.10;30.90;;;;;;4928891;29;20040;-69
2021/05/04 12:31:16;;;;;;;12.88;4.95;;;20.10;30.90;;;;;;4945683;29;20032;-68
2021/05/04 12:33:45;;;;;;;6.93;3.08;;;20.00;30.30;;;;;;4929142;29;20036;-69
2021/05/04 12:36:18;;;;;;;2.50;1.40;;;19.90;31.20;;;;;;4946836;29;20362;-70
2021/05/04 12:38:49;;;;;;;7.80;1.70;;;19.80;31.10;;;;;;4946475;29;20031;-68
2021/05/04 12:41:16;;;;;;;2.83;1.45;;;19.80;30.40;;;;;;4945777;29;20041;-64
2021/05/04 12:44:20;;;;;;;2.47;1.40;;;19.80;31.10;;;;;;4945724;29;20046;-64
2021/05/04 12:46:53;;;;;;;2.63;1.55;;;19.80;31.50;;;;;;4945674;29;20059;-65
2021/05/04 12:49:18;;;;;;;5.18;1.33;;;19.80;30.50;;;;;;4944999;29;20039;-67
2021/05/04 12:51:46;;;;;;;3.65;1.60;;;19.80;31.20;;;;;;4928217;29;20036;-66
2021/05/04 12:54:18;;;;;;;1.90;1.45;;;19.80;31.80;;;;;;4944582;29;20231;-67
2021/05/04 12:56:48;;;;;;;3.67;2.00;;;19.80;30.80;;;;;;4930725;29;20153;-67
2021/05/04 12:59:15;;;;;;;3.83;1.52;;;19.80;30.90;;;;;;4945150;29;20052;-65
2021/05/04 13:01:53;;;;;;;2.78;1.42;;;19.80;31.30;;;;;;4945315;29;20326;-64